Time;durP1;ratioP1;P1;durP2;ratioP2;P2;SDS_P1;SDS_P2;PMS_P1;PMS_P2;Temp;Humidity;BMP_temperature;BMP_pressure;BME280_temperature;BME280_humidity;BME280_pressure;Samples;Min_cycle;Max_cycle;Signal;HPM_P1;HPM_P2
2024/01/18 00:02:12;;;;;;;1.17;0.50;;;28.90;99.90;;;;;;5087108;28;20234;-77
2024/01/18 00:04:42;;;;;;;2.20;0.60;;;28.80;99.90;;;;;;5086795;28;20195;-77
2024/01/18 00:07:13;;;;;;;0.57;0.38;;;28.80;99.90;;;;;;5088922;28;20223;-78
2024/01/18 00:09:44;;;;;;;2.65;0.90;;;28.70;99.90;;;;;;5072369;28;20223;-77
2024/01/18 00:12:17;;;;;;;7.68;1.90;;;28.80;99.90;;;;;;5067639;28;20273;-78
2024/01/18 00:14:47;;;;;;;6.65;1.85;;;28.70;99.90;;;;;;5065086;28;20658;-78
2024/01/18 00:17:18;;;;;;;5.30;1.77;;;28.50;99.90;;;;;;5055151;28;20195;-78
2024/01/18 00:19:49;;;;;;;6.22;2.05;;;28.30;99.90;;;;;;5054422;28;20196;-77
2024/01/18 00:22:20;;;;;;;5.82;1.95;;;28.00;99.90;;;;;;5053438;28;20205;-77
2024/01/18 00:24:51;;;;;;;6.05;2.08;;;27.90;99.90;;;;;;5053157;28;20227;-77
2024/01/18 00:27:23;;;;;;;7.20;2.42;;;27.80;99.90;;;;;;5067743;28;20198;-78
2024/01/18 00:29:54;;;;;;;8.65;2.35;;;27.70;99.90;;;;;;5064196;28;20235;-77
2024/01/18 00:32:25;;;;;;;7.22;2.25;;;27.70;99.90;;;;;;5060597;28;20196;-78
2024/01/18 00:34:56;;;;;;;5.97;2.00;;;27.70;99.90;;;;;;5070354;28;20194;-77
2024/01/18 00:37:27;;;;;;;5.70;1.98;;;27.70;99.90;;;;;;5073145;28;20203;-78
2024/01/18 00:39:58;;;;;;;10.60;3.13;;;27.70;99.90;;;;;;5073186;28;20195;-77
2024/01/18 00:42:30;;;;;;;7.93;2.30;;;27.60;99.90;;;;;;5073594;28;20200;-78
2024/01/18 00:45:01;;;;;;;7.82;2.35;;;27.60;99.90;;;;;;5073822;28;20241;-78
2024/01/18 00:47:32;;;;;;;9.07;2.30;;;27.60;99.90;;;;;;5060590;28;20229;-78
2024/01/18 00:50:03;;;;;;;10.10;2.40;;;27.80;99.90;;;;;;5053224;28;20226;-77
2024/01/18 00:52:33;;;;;;;8.75;2.03;;;27.80;99.90;;;;;;5058253;28;20196;-77
2024/01/18 00:55:04;;;;;;;9.40;2.47;;;28.00;99.90;;;;;;5072659;28;20210;-76
2024/01/18 00:57:37;;;;;;;7.68;2.45;;;27.90;99.90;;;;;;5072399;28;20215;-77
2024/01/18 01:00:08;;;;;;;10.30;2.40;;;28.00;99.90;;;;;;5072737;28;20199;-77
2024/01/18 01:02:39;;;;;;;9.15;2.63;;;27.90;99.90;;;;;;5073170;28;20286;-76
2024/01/18 01:05:11;;;;;;;6.18;1.90;;;28.00;99.90;;;;;;5070360;28;20572;-77
2024/01/18 01:07:41;;;;;;;10.30;2.42;;;28.00;99.90;;;;;;5088569;28;20227;-78
2024/01/18 01:10:12;;;;;;;10.57;2.90;;;28.00;99.90;;;;;;5052537;28;20230;-78
2024/01/18 01:12:45;;;;;;;8.77;2.50;;;28.20;99.90;;;;;;5052588;28;20726;-77
2024/01/18 01:15:16;;;;;;;10.70;2.85;;;28.20;99.90;;;;;;5072865;28;20282;-77
2024/01/18 01:17:47;;;;;;;7.78;2.25;;;28.30;99.90;;;;;;5060788;28;20283;-78
2024/01/18 01:20:19;;;;;;;12.73;2.72;;;28.30;99.90;;;;;;5063213;28;20193;-78
2024/01/18 01:22:50;;;;;;;10.02;2.75;;;28.40;99.90;;;;;;5070687;28;20241;-78
2024/01/18 01:25:21;;;;;;;8.90;2.35;;;28.60;99.90;;;;;;5055290;28;20291;-78
2024/01/18 01:27:54;;;;;;;9.40;2.55;;;28.70;99.90;;;;;;5062945;28;20200;-78
2024/01/18 01:30:25;;;;;;;13.05;3.10;;;28.70;99.90;;;;;;5072201;28;20224;-78
2024/01/18 01:32:56;;;;;;;12.55;2.60;;;28.80;99.90;;;;;;5053107;28;20204;-78
2024/01/18 01:35:27;;;;;;;6.68;2.28;;;28.80;99.90;;;;;;5072428;28;20677;-78
2024/01/18 01:37:58;;;;;;;10.05;2.60;;;28.90;99.90;;;;;;5075806;28;20195;-78
2024/01/18 01:40:29;;;;;;;8.63;2.35;;;28.80;99.90;;;;;;5090182;28;20195;-78
2024/01/18 01:43:01;;;;;;;7.30;2.40;;;28.80;99.90;;;;;;5070559;28;20192;-78
2024/01/18 01:45:32;;;;;;;9.77;2.85;;;28.60;99.90;;;;;;5063381;28;20193;-78
2024/01/18 01:48:03;;;;;;;8.00;2.35;;;28.50;99.90;;;;;;5066006;28;20200;-78
2024/01/18 01:50:33;;;;;;;12.70;2.55;;;28.50;99.90;;;;;;5066317;28;20224;-78
2024/01/18 01:53:05;;;;;;;8.40;2.10;;;28.50;99.90;;;;;;5058010;28;20192;-78
2024/01/18 01:55:36;;;;;;;8.70;2.80;;;28.50;99.90;;;;;;5068119;28;20200;-79
2024/01/18 01:58:09;;;;;;;9.55;2.40;;;28.50;99.90;;;;;;5068275;28;20560;-79
2024/01/18 02:00:39;;;;;;;9.20;2.08;;;28.50;99.90;;;;;;5056312;28;20227;-78
2024/01/18 02:03:10;;;;;;;8.18;2.22;;;28.50;99.90;;;;;;5071604;28;20202;-78
2024/01/18 02:05:42;;;;;;;9.07;2.00;;;28.60;99.90;;;;;;5071419;28;20641;-78
2024/01/18 02:08:12;;;;;;;7.30;2.25;;;28.60;99.90;;;;;;5054006;28;20197;-78
2024/01/18 02:10:43;;;;;;;9.20;2.30;;;28.60;99.90;;;;;;5089282;28;20223;-78
2024/01/18 02:13:17;;;;;;;8.68;2.05;;;28.60;99.90;;;;;;5086496;28;20199;-78
2024/01/18 02:15:48;;;;;;;8.00;2.30;;;28.60;99.90;;;;;;5068961;28;20196;-78
2024/01/18 02:18:19;;;;;;;6.70;1.77;;;28.70;99.90;;;;;;5065548;28;20280;-78
2024/01/18 02:20:50;;;;;;;8.45;2.50;;;28.70;99.90;;;;;;5062822;28;20236;-77
2024/01/18 02:23:21;;;;;;;6.80;2.78;;;28.90;99.90;;;;;;5053436;28;20196;-78
2024/01/18 02:25:53;;;;;;;7.68;2.80;;;28.90;99.90;;;;;;5057088;28;20208;-77
2024/01/18 02:28:24;;;;;;;9.30;2.33;;;29.00;99.90;;;;;;5085344;28;20199;-77
2024/01/18 02:30:55;;;;;;;14.85;2.90;;;29.10;99.90;;;;;;5091090;28;20268;-78
2024/01/18 02:33:26;;;;;;;9.80;2.63;;;29.10;99.90;;;;;;5058763;28;20196;-77
2024/01/18 02:35:57;;;;;;;6.80;2.25;;;29.20;99.90;;;;;;5051028;28;20207;-77
2024/01/18 02:38:28;;;;;;;8.73;2.28;;;29.30;99.90;;;;;;5060306;28;20267;-77
2024/01/18 02:41:02;;;;;;;12.10;2.78;;;29.20;99.90;;;;;;5070142;28;20199;-77
2024/01/18 02:43:33;;;;;;;7.57;2.78;;;29.20;99.90;;;;;;5062761;28;20228;-77
2024/01/18 02:46:04;;;;;;;10.32;2.55;;;29.10;99.90;;;;;;5070691;28;20283;-77
2024/01/18 02:48:35;;;;;;;6.30;2.22;;;29.10;99.90;;;;;;5084679;28;20202;-76
2024/01/18 02:51:06;;;;;;;11.15;2.45;;;29.00;99.90;;;;;;5073448;28;20224;-76
2024/01/18 02:53:37;;;;;;;9.23;1.80;;;29.00;99.90;;;;;;5074987;28;20196;-77
2024/01/18 02:56:10;;;;;;;11.70;2.60;;;28.90;99.90;;;;;;5055339;28;20196;-79
2024/01/18 02:58:41;;;;;;;7.47;2.50;;;28.80;99.90;;;;;;5060931;28;20298;-77
2024/01/18 03:01:12;;;;;;;10.05;2.47;;;28.90;99.90;;;;;;5066555;28;20295;-77
2024/01/18 03:03:43;;;;;;;8.50;2.30;;;29.10;99.90;;;;;;5050453;28;20204;-77
2024/01/18 03:06:14;;;;;;;8.73;2.30;;;29.10;99.90;;;;;;5076422;28;20231;-77
2024/01/18 03:08:44;;;;;;;11.82;2.38;;;29.10;99.90;;;;;;5053745;28;20204;-77
2024/01/18 03:11:17;;;;;;;9.80;2.35;;;29.10;99.90;;;;;;5072551;28;20223;-77
2024/01/18 03:13:48;;;;;;;11.82;2.47;;;29.10;99.90;;;;;;5086883;28;20562;-77
2024/01/18 03:16:19;;;;;;;10.20;2.30;;;29.10;99.90;;;;;;5062658;28;20185;-77
2024/01/18 03:18:49;;;;;;;8.40;2.50;;;29.10;99.90;;;;;;5049453;28;20200;-78
2024/01/18 03:21:20;;;;;;;7.55;2.13;;;29.10;99.90;;;;;;5064281;28;20258;-78
2024/01/18 03:23:51;;;;;;;7.07;2.10;;;29.00;99.90;;;;;;5069244;28;20195;-78
2024/01/18 03:26:24;;;;;;;7.57;2.35;;;29.00;99.90;;;;;;5070157;28;20208;-78
2024/01/18 03:28:54;;;;;;;9.45;2.40;;;29.10;99.90;;;;;;5069502;28;20241;-77
2024/01/18 03:31:25;;;;;;;7.38;1.98;;;29.10;99.90;;;;;;5064520;28;20253;-78
2024/01/18 03:33:56;;;;;;;8.95;2.30;;;29.10;99.90;;;;;;5067146;28;20804;-78
2024/01/18 03:36:27;;;;;;;9.35;2.70;;;29.20;99.90;;;;;;5088434;28;20629;-77
2024/01/18 03:38:58;;;;;;;10.00;2.35;;;29.20;99.90;;;;;;5090678;28;20207;-78
2024/01/18 03:41:31;;;;;;;9.77;1.92;;;29.40;99.90;;;;;;5075211;28;20203;-78
2024/01/18 03:44:02;;;;;;;7.40;2.10;;;29.40;99.90;;;;;;5083122;28;20226;-78
2024/01/18 03:46:33;;;;;;;9.52;2.20;;;29.50;99.90;;;;;;5087468;28;20199;-78
2024/01/18 03:49:03;;;;;;;8.15;2.20;;;29.50;99.90;;;;;;5080439;28;20196;-78
2024/01/18 03:51:34;;;;;;;9.48;2.28;;;29.40;99.90;;;;;;5077381;28;20224;-78
2024/01/18 03:54:05;;;;;;;8.75;2.25;;;29.30;99.90;;;;;;5070133;28;20578;-79
2024/01/18 03:56:37;;;;;;;8.68;2.33;;;29.30;99.90;;;;;;5068960;28;20267;-79
2024/01/18 03:59:08;;;;;;;8.90;2.45;;;29.30;99.90;;;;;;5050474;28;20229;-78
2024/01/18 04:01:39;;;;;;;8.40;2.20;;;29.10;99.90;;;;;;5053131;28;20191;-78
2024/01/18 04:04:10;;;;;;;11.15;2.42;;;29.10;99.90;;;;;;5061960;28;20585;-78
2024/01/18 04:06:41;;;;;;;9.60;2.45;;;29.10;99.90;;;;;;5063918;28;20228;-78
2024/01/18 04:09:12;;;;;;;8.15;2.33;;;29.10;99.90;;;;;;5063357;28;20565;-78
2024/01/18 04:11:44;;;;;;;8.85;2.13;;;29.00;99.90;;;;;;5049593;28;20250;-78
2024/01/18 04:14:15;;;;;;;9.30;2.70;;;29.00;99.90;;;;;;5058275;28;20196;-78
2024/01/18 04:16:47;;;;;;;7.60;2.13;;;29.10;99.90;;;;;;5052154;28;20208;-78
2024/01/18 04:19:18;;;;;;;8.00;1.90;;;28.80;99.90;;;;;;5052008;28;20188;-78
2024/01/18 04:21:49;;;;;;;9.23;2.38;;;28.90;99.90;;;;;;5074263;28;20196;-78
2024/01/18 04:24:20;;;;;;;8.95;2.10;;;28.90;99.90;;;;;;5055253;28;20203;-78
2024/01/18 04:26:52;;;;;;;7.85;2.10;;;28.90;99.90;;;;;;5061284;28;20227;-79
2024/01/18 04:29:23;;;;;;;10.07;2.67;;;29.00;99.90;;;;;;5049677;28;20581;-79
2024/01/18 04:31:54;;;;;;;9.38;2.05;;;29.00;99.90;;;;;;5061157;28;20228;-78
2024/01/18 04:34:25;;;;;;;13.35;2.60;;;29.00;99.90;;;;;;5069771;28;20210;-78
2024/01/18 04:36:55;;;;;;;10.75;2.47;;;28.90;99.90;;;;;;5069513;28;20649;-78
2024/01/18 04:39:27;;;;;;;7.70;2.08;;;29.00;99.90;;;;;;5074797;28;20195;-78
2024/01/18 04:41:59;;;;;;;13.18;2.65;;;29.00;99.90;;;;;;5087986;28;20222;-78
2024/01/18 04:44:30;;;;;;;8.13;2.53;;;29.00;99.90;;;;;;5088650;28;20198;-78
2024/01/18 04:47:01;;;;;;;9.80;2.30;;;28.80;99.90;;;;;;5078618;28;20191;-77
2024/01/18 04:49:32;;;;;;;11.65;2.58;;;28.80;99.90;;;;;;5078228;28;20204;-78
2024/01/18 04:52:02;;;;;;;8.30;2.17;;;28.70;99.90;;;;;;5085002;28;20628;-77
2024/01/18 04:54:33;;;;;;;12.77;2.50;;;28.70;99.90;;;;;;5071632;28;20200;-78
2024/01/18 04:57:06;;;;;;;12.10;2.60;;;28.50;99.90;;;;;;5081665;28;20199;-78
2024/01/18 04:59:40;;;;;;;10.05;2.47;;;28.50;99.90;;;;;;5087778;28;20206;-78
2024/01/18 05:02:11;;;;;;;13.45;3.08;;;28.40;99.90;;;;;;5093002;28;20302;-78
2024/01/18 05:04:42;;;;;;;8.85;2.30;;;28.50;99.90;;;;;;5090517;28;20285;-78
2024/01/18 05:07:13;;;;;;;10.05;2.40;;;28.60;99.90;;;;;;5087244;28;20238;-78
2024/01/18 05:09:43;;;;;;;12.88;2.78;;;28.60;99.90;;;;;;5073086;28;20203;-78
2024/01/18 05:12:16;;;;;;;10.05;2.42;;;28.60;99.90;;;;;;5054115;28;20231;-78
2024/01/18 05:14:47;;;;;;;8.13;2.30;;;28.60;99.90;;;;;;5071013;28;20202;-78
2024/01/18 05:17:21;;;;;;;15.02;2.40;;;28.60;99.90;;;;;;5064792;28;20548;-78
2024/01/18 05:19:51;;;;;;;8.48;2.75;;;28.80;99.90;;;;;;5074834;28;20250;-78
2024/01/18 05:22:22;;;;;;;13.95;2.60;;;28.80;99.90;;;;;;5061570;28;20200;-78
2024/01/18 05:24:53;;;;;;;8.35;2.58;;;28.90;99.90;;;;;;5071577;28;20204;-77
2024/01/18 05:27:29;;;;;;;15.98;2.90;;;28.90;99.90;;;;;;5072491;28;20200;-78
2024/01/18 05:30:00;;;;;;;9.93;2.30;;;28.90;99.90;;;;;;5072828;28;20264;-77
2024/01/18 05:32:31;;;;;;;9.07;2.13;;;28.90;99.90;;;;;;5074128;28;20239;-78
2024/01/18 05:35:04;;;;;;;8.35;2.20;;;29.00;99.90;;;;;;5076593;28;20334;-77
2024/01/18 05:37:35;;;;;;;11.95;2.63;;;29.10;99.90;;;;;;5069906;28;20282;-77
2024/01/18 05:40:06;;;;;;;9.50;2.53;;;29.20;99.90;;;;;;5053470;28;20279;-77
2024/01/18 05:42:39;;;;;;;8.82;2.60;;;29.00;99.90;;;;;;5051989;28;20287;-78
2024/01/18 05:45:10;;;;;;;9.88;2.50;;;29.10;99.90;;;;;;5056479;28;20192;-78
2024/01/18 05:47:41;;;;;;;12.70;2.47;;;29.10;99.90;;;;;;5058124;28;20196;-77
2024/01/18 05:50:12;;;;;;;13.82;2.47;;;29.10;99.90;;;;;;5084624;28;20198;-77
2024/01/18 05:52:43;;;;;;;12.02;2.50;;;29.20;99.90;;;;;;5092021;28;20654;-77
2024/01/18 05:55:14;;;;;;;7.90;2.20;;;29.20;99.90;;;;;;5076650;28;20751;-76
2024/01/18 05:57:49;;;;;;;15.02;2.58;;;29.30;99.90;;;;;;5072590;28;20238;-76
2024/01/18 06:00:21;;;;;;;10.20;2.30;;;29.40;99.90;;;;;;5055318;28;20194;-76
2024/01/18 06:02:52;;;;;;;12.73;2.63;;;29.20;99.90;;;;;;5058290;28;20224;-76
2024/01/18 06:05:22;;;;;;;13.85;2.72;;;29.40;99.90;;;;;;5052280;28;20196;-77
2024/01/18 06:07:53;;;;;;;13.77;2.63;;;29.40;99.90;;;;;;5071681;28;20238;-77
2024/01/18 06:10:24;;;;;;;12.90;2.85;;;29.60;99.90;;;;;;5069827;28;20665;-77
2024/01/18 06:12:57;;;;;;;13.27;3.00;;;29.80;99.90;;;;;;5071504;28;20310;-77
2024/01/18 06:15:27;;;;;;;13.35;2.50;;;30.10;99.90;;;;;;5050981;28;20196;-77
2024/01/18 06:18:03;;;;;;;9.32;2.13;;;30.20;99.90;;;;;;5055292;28;20192;-76
2024/01/18 06:20:34;;;;;;;11.75;2.30;;;30.30;99.90;;;;;;5071744;28;20276;-78
2024/01/18 06:23:05;;;;;;;15.02;2.83;;;30.40;99.90;;;;;;5058187;28;20235;-77
2024/01/18 06:25:37;;;;;;;13.40;2.83;;;30.50;99.90;;;;;;5054330;28;20193;-77
2024/01/18 06:28:12;;;;;;;12.13;2.33;;;30.60;99.90;;;;;;5051343;28;20663;-77
2024/01/18 06:30:43;;;;;;;11.68;2.50;;;30.70;99.90;;;;;;5051501;28;20690;-78
2024/01/18 06:33:14;;;;;;;9.52;2.40;;;30.70;99.90;;;;;;5051078;28;20651;-77
2024/01/18 06:35:45;;;;;;;10.48;2.40;;;30.70;99.90;;;;;;5052660;28;20193;-77
2024/01/18 06:38:16;;;;;;;13.05;2.80;;;30.80;99.90;;;;;;5084379;28;20195;-77
2024/01/18 06:40:47;;;;;;;10.05;2.25;;;31.10;99.90;;;;;;5091216;28;20203;-77
2024/01/18 06:43:20;;;;;;;11.20;2.70;;;31.30;99.90;;;;;;5062410;28;20214;-76
2024/01/18 06:45:54;;;;;;;9.15;2.17;;;31.70;99.90;;;;;;5068614;28;20204;-76
2024/01/18 06:48:25;;;;;;;11.50;2.63;;;31.90;99.90;;;;;;5075501;28;20190;-76
2024/01/18 06:50:56;;;;;;;15.30;2.80;;;32.30;99.90;;;;;;5090979;28;20225;-76
2024/01/18 06:53:27;;;;;;;9.15;2.35;;;32.40;99.90;;;;;;5068669;28;20192;-76
2024/01/18 06:55:57;;;;;;;9.95;2.40;;;32.50;99.90;;;;;;5056412;28;20199;-76
2024/01/18 06:58:30;;;;;;;11.52;2.60;;;32.80;99.90;;;;;;5057201;28;20217;-77
2024/01/18 07:01:01;;;;;;;8.73;2.35;;;33.00;99.90;;;;;;5070466;28;20577;-76
2024/01/18 07:03:32;;;;;;;7.72;2.20;;;33.10;99.90;;;;;;5069640;28;20200;-76
2024/01/18 07:06:04;;;;;;;12.43;2.50;;;33.20;99.90;;;;;;5058622;28;20232;-76
2024/01/18 07:08:35;;;;;;;14.52;2.90;;;33.70;99.90;;;;;;5051009;28;20250;-77
2024/01/18 07:11:06;;;;;;;9.43;2.20;;;33.90;99.90;;;;;;5050019;28;20225;-77
2024/01/18 07:13:44;;;;;;;11.52;2.60;;;33.90;99.90;;;;;;5051218;28;20655;-77
2024/01/18 07:16:15;;;;;;;13.05;2.67;;;33.80;99.90;;;;;;5063250;28;20299;-76
2024/01/18 07:18:49;;;;;;;10.25;2.30;;;33.90;99.90;;;;;;5091279;28;20226;-77
2024/01/18 07:21:20;;;;;;;12.18;2.28;;;33.90;99.90;;;;;;5092296;28;20713;-78
2024/01/18 07:23:51;;;;;;;14.02;2.45;;;33.80;99.90;;;;;;5054870;28;20235;-76
2024/01/18 07:26:23;;;;;;;9.48;2.38;;;34.10;99.90;;;;;;5050784;28;20215;-76
2024/01/18 07:28:55;;;;;;;9.15;2.20;;;34.10;99.90;;;;;;5050636;28;20196;-77
2024/01/18 07:31:29;;;;;;;7.63;2.05;;;34.20;99.90;;;;;;5052745;28;20379;-77
2024/01/18 07:34:02;;;;;;;6.00;1.90;;;34.20;99.90;;;;;;5052940;28;20643;-77
2024/01/18 07:36:33;;;;;;;10.60;2.40;;;34.20;99.90;;;;;;5051419;28;20209;-77
2024/01/18 07:39:04;;;;;;;8.25;2.33;;;34.10;99.90;;;;;;5053651;28;20212;-77
2024/01/18 07:41:35;;;;;;;9.80;2.45;;;34.30;99.90;;;;;;5070415;28;20646;-76
2024/01/18 07:44:08;;;;;;;10.90;2.25;;;34.50;99.90;;;;;;5070525;28;20196;-76
2024/01/18 07:46:42;;;;;;;13.43;2.63;;;34.30;99.90;;;;;;5058152;28;20279;-76
2024/01/18 07:49:12;;;;;;;12.60;2.80;;;34.40;99.90;;;;;;5069501;28;20196;-77
2024/01/18 07:51:43;;;;;;;9.90;2.30;;;34.40;99.90;;;;;;5059355;28;20223;-77
2024/01/18 07:54:14;;;;;;;10.10;2.30;;;34.30;99.90;;;;;;5084564;28;20287;-76
2024/01/18 07:56:45;;;;;;;9.23;1.90;;;34.40;99.90;;;;;;5068520;28;20197;-77
2024/01/18 07:59:17;;;;;;;6.95;1.70;;;34.20;99.90;;;;;;5049990;28;20217;-76
2024/01/18 08:01:51;;;;;;;7.13;2.17;;;34.10;99.90;;;;;;5063562;28;20210;-76
2024/01/18 08:04:22;;;;;;;12.73;2.50;;;34.10;99.90;;;;;;5081241;28;20192;-76
2024/01/18 08:06:52;;;;;;;9.10;2.13;;;33.90;99.90;;;;;;5087841;28;20231;-76
2024/01/18 08:09:23;;;;;;;9.60;2.25;;;33.60;99.90;;;;;;5059417;28;20231;-76
2024/01/18 08:11:54;;;;;;;13.27;2.90;;;33.10;99.90;;;;;;5058490;28;20307;-76
2024/01/18 08:14:26;;;;;;;8.50;2.20;;;32.60;99.90;;;;;;5056384;28;20200;-76
2024/01/18 08:16:57;;;;;;;10.32;2.33;;;32.20;99.90;;;;;;5069751;28;20196;-76
2024/01/18 08:19:28;;;;;;;10.13;2.10;;;31.60;99.90;;;;;;5060305;28;20192;-76
2024/01/18 08:21:59;;;;;;;7.53;1.95;;;31.00;99.90;;;;;;5061249;28;20206;-76
2024/01/18 08:24:30;;;;;;;10.20;1.98;;;30.70;99.90;;;;;;5055167;28;20196;-76
2024/01/18 08:27:00;;;;;;;9.70;2.30;;;30.20;99.90;;;;;;5054822;28;20689;-76
2024/01/18 08:29:33;;;;;;;6.32;1.73;;;29.90;99.90;;;;;;5053385;28;20373;-76
2024/01/18 08:32:17;;;;;;;9.40;2.10;;;29.60;99.90;;;;;;5076238;28;20234;-76
2024/01/18 08:34:48;;;;;;;8.18;2.42;;;29.30;99.90;;;;;;5080905;28;20658;-76
2024/01/18 08:37:19;;;;;;;6.80;1.90;;;29.00;99.90;;;;;;5073013;28;20195;-76
2024/01/18 08:39:50;;;;;;;7.55;2.00;;;28.90;99.90;;;;;;5090464;28;20191;-76
2024/01/18 08:42:20;;;;;;;6.93;2.17;;;28.80;99.90;;;;;;5054430;28;20208;-75
2024/01/18 08:44:53;;;;;;;8.32;2.35;;;28.70;99.90;;;;;;5067056;28;20195;-76
2024/01/18 08:47:24;;;;;;;9.38;2.38;;;28.60;99.90;;;;;;5077415;28;20196;-75
2024/01/18 08:49:55;;;;;;;9.23;2.33;;;28.60;99.90;;;;;;5053120;28;20258;-77
2024/01/18 08:52:25;;;;;;;9.65;2.33;;;28.40;99.90;;;;;;5059196;28;20595;-76
2024/01/18 08:54:56;;;;;;;10.07;2.20;;;28.30;99.90;;;;;;5079312;28;20197;-77
2024/01/18 08:57:29;;;;;;;9.27;2.55;;;28.30;99.90;;;;;;5060112;28;20663;-77
2024/01/18 09:00:01;;;;;;;10.10;2.40;;;28.30;99.90;;;;;;5055053;28;20287;-76
2024/01/18 09:02:32;;;;;;;10.15;2.40;;;28.20;99.90;;;;;;5053074;28;20201;-76
2024/01/18 09:05:03;;;;;;;6.70;2.45;;;28.10;99.90;;;;;;5071157;28;20210;-75
2024/01/18 09:07:34;;;;;;;8.77;2.15;;;28.00;99.90;;;;;;5089460;28;20238;-75
2024/01/18 09:10:08;;;;;;;9.68;2.50;;;27.90;99.90;;;;;;5069546;28;20197;-76
2024/01/18 09:12:42;;;;;;;13.70;2.55;;;27.80;99.90;;;;;;5069716;28;20223;-76
2024/01/18 09:15:15;;;;;;;8.88;2.53;;;27.70;99.90;;;;;;5090337;28;20199;-76
2024/01/18 09:17:45;;;;;;;12.50;2.63;;;27.70;99.90;;;;;;5069327;28;20537;-77
2024/01/18 09:20:16;;;;;;;5.90;2.08;;;27.70;99.90;;;;;;5059014;28;20200;-76
2024/01/18 09:22:47;;;;;;;9.73;2.40;;;27.60;99.90;;;;;;5055996;28;20208;-76
2024/01/18 09:25:18;;;;;;;8.80;2.50;;;27.50;99.90;;;;;;5057233;28;20211;-77
2024/01/18 09:27:49;;;;;;;8.93;2.45;;;27.50;99.90;;;;;;5088189;28;20202;-77
2024/01/18 09:30:23;;;;;;;9.82;2.63;;;27.50;99.90;;;;;;5091017;28;20217;-77
2024/01/18 09:32:54;;;;;;;13.65;2.47;;;27.50;99.90;;;;;;5092363;28;20273;-76
2024/01/18 09:35:25;;;;;;;9.95;2.85;;;27.50;99.90;;;;;;5092810;28;20296;-76
2024/01/18 09:37:56;;;;;;;8.13;2.53;;;27.40;99.90;;;;;;5082246;28;20280;-77
2024/01/18 09:40:28;;;;;;;9.48;2.67;;;27.30;99.90;;;;;;5072018;28;20200;-75
2024/01/18 09:43:01;;;;;;;12.65;2.50;;;27.30;99.90;;;;;;5065156;28;20193;-76
2024/01/18 09:45:38;;;;;;;9.30;2.80;;;27.20;99.90;;;;;;5052404;28;20688;-77
2024/01/18 09:48:10;;;;;;;9.13;2.50;;;27.20;99.90;;;;;;5062216;28;20224;-76
2024/01/18 09:50:45;;;;;;;11.85;2.80;;;27.20;99.90;;;;;;5077301;28;20196;-76
2024/01/18 09:53:25;;;;;;;13.52;2.40;;;27.20;99.90;;;;;;5056501;28;20228;-77
2024/01/18 09:56:02;;;;;;;10.68;2.40;;;27.20;99.90;;;;;;5055642;28;20203;-76
2024/01/18 09:58:34;;;;;;;8.73;2.30;;;27.20;99.90;;;;;;5067916;28;20321;-76
2024/01/18 10:01:11;;;;;;;8.02;2.08;;;27.10;99.90;;;;;;5055230;28;20203;-76
2024/01/18 10:03:41;;;;;;;8.88;2.50;;;27.10;99.90;;;;;;5086266;28;20248;-76
2024/01/18 10:06:12;;;;;;;8.35;2.30;;;27.10;99.90;;;;;;5061818;28;20223;-78
2024/01/18 10:08:43;;;;;;;9.45;2.30;;;27.10;99.90;;;;;;5075961;28;20200;-77
2024/01/18 10:11:14;;;;;;;7.93;2.17;;;27.10;99.90;;;;;;5062671;28;20181;-77
2024/01/18 10:13:59;;;;;;;7.72;2.10;;;27.00;99.90;;;;;;5053619;28;20229;-77
2024/01/18 10:16:32;;;;;;;8.85;2.40;;;27.00;99.90;;;;;;5063292;28;20724;-76
2024/01/18 10:19:05;;;;;;;8.10;2.05;;;27.00;99.90;;;;;;5051932;28;20730;-77
2024/01/18 10:21:37;;;;;;;5.55;1.90;;;26.90;99.90;;;;;;5051614;28;20201;-77
2024/01/18 10:24:12;;;;;;;8.40;2.20;;;26.90;99.90;;;;;;5052625;28;20203;-79
2024/01/18 10:26:43;;;;;;;9.75;2.45;;;26.90;99.90;;;;;;5051629;28;20207;-76
2024/01/18 10:29:14;;;;;;;8.77;2.00;;;26.80;99.90;;;;;;5073999;28;20208;-76
2024/01/18 10:31:47;;;;;;;7.57;1.98;;;26.80;99.90;;;;;;5050658;28;20207;-76
2024/01/18 10:34:19;;;;;;;9.52;2.55;;;26.70;99.90;;;;;;5083648;28;20191;-76
2024/01/18 10:36:50;;;;;;;10.35;3.05;;;26.70;99.90;;;;;;5091470;28;20709;-77
2024/01/18 10:39:21;;;;;;;13.02;3.70;;;26.60;99.90;;;;;;5091341;28;20637;-77
2024/01/18 10:41:52;;;;;;;7.40;2.28;;;26.50;99.90;;;;;;5087775;28;20191;-77
2024/01/18 10:44:23;;;;;;;8.77;2.40;;;26.50;99.90;;;;;;5088775;28;20195;-77
2024/01/18 10:46:55;;;;;;;8.93;2.30;;;26.60;99.90;;;;;;5068777;28;20208;-76
2024/01/18 10:49:28;;;;;;;9.27;2.22;;;26.50;99.90;;;;;;5050853;28;20291;-77
2024/01/18 10:51:59;;;;;;;8.05;2.20;;;26.40;99.90;;;;;;5065342;28;20218;-76
2024/01/18 10:54:30;;;;;;;9.30;2.17;;;26.50;99.90;;;;;;5051275;28;20204;-76
2024/01/18 10:57:01;;;;;;;7.68;1.95;;;26.40;99.90;;;;;;5068233;28;20278;-76
2024/01/18 10:59:32;;;;;;;10.93;2.35;;;26.50;99.90;;;;;;5090969;28;20210;-76
2024/01/18 11:02:05;;;;;;;10.95;2.70;;;26.40;99.90;;;;;;5079566;28;20199;-76
2024/01/18 11:04:37;;;;;;;6.50;2.05;;;26.40;99.90;;;;;;5056234;28;20293;-76
2024/01/18 11:07:12;;;;;;;9.70;2.85;;;26.50;99.90;;;;;;5050800;28;20694;-76
2024/01/18 11:09:43;;;;;;;7.70;2.25;;;26.50;99.90;;;;;;5071067;28;20205;-77
2024/01/18 11:12:15;;;;;;;8.80;2.25;;;26.50;99.90;;;;;;5085634;28;20191;-77
2024/01/18 11:14:46;;;;;;;7.93;2.50;;;26.50;99.90;;;;;;5088068;28;20192;-76
2024/01/18 11:17:21;;;;;;;7.57;2.42;;;26.50;99.90;;;;;;5087568;28;20287;-77
2024/01/18 11:19:54;;;;;;;10.07;2.47;;;26.40;99.90;;;;;;5052962;28;20192;-77
2024/01/18 11:22:30;;;;;;;13.38;3.10;;;26.40;99.90;;;;;;5050705;28;20211;-76
2024/01/18 11:25:09;;;;;;;9.68;2.78;;;26.40;99.90;;;;;;5070989;28;21101;-76
2024/01/18 11:27:40;;;;;;;10.25;2.50;;;26.40;99.90;;;;;;5084885;28;20210;-75
2024/01/18 11:30:14;;;;;;;10.85;2.97;;;26.40;99.90;;;;;;5070347;28;20609;-75
2024/01/18 11:32:47;;;;;;;8.30;2.38;;;26.40;99.90;;;;;;5076377;28;20265;-76
2024/01/18 11:35:19;;;;;;;11.85;2.90;;;26.40;99.90;;;;;;5072369;28;20203;-75
2024/01/18 11:37:50;;;;;;;9.60;2.78;;;26.40;99.90;;;;;;5052695;28;20276;-75
2024/01/18 11:40:21;;;;;;;7.20;2.58;;;26.40;99.90;;;;;;5050985;28;20215;-76
2024/01/18 11:42:52;;;;;;;8.95;2.92;;;26.40;99.90;;;;;;5061317;28;20196;-76
2024/01/18 11:45:23;;;;;;;10.23;2.97;;;26.30;99.90;;;;;;5049830;28;20207;-76
2024/01/18 11:47:56;;;;;;;9.43;2.78;;;26.30;99.90;;;;;;5067070;28;20202;-76
2024/01/18 11:50:26;;;;;;;11.77;3.10;;;26.30;99.90;;;;;;5073395;28;20192;-76
2024/01/18 11:52:57;;;;;;;7.35;2.22;;;26.20;99.90;;;;;;5053978;28;20224;-76
2024/01/18 11:55:35;;;;;;;6.78;2.60;;;26.00;99.90;;;;;;5054734;28;20574;-77
2024/01/18 11:58:08;;;;;;;6.85;2.90;;;26.00;99.90;;;;;;5055016;28;20238;-76
2024/01/18 12:00:39;;;;;;;8.13;2.70;;;25.90;99.90;;;;;;5065489;28;20299;-75
2024/01/18 12:03:14;;;;;;;8.10;2.40;;;25.90;99.90;;;;;;5094731;28;20229;-75
2024/01/18 12:05:47;;;;;;;7.50;2.15;;;25.80;99.90;;;;;;5068974;28;20608;-76
2024/01/18 12:08:18;;;;;;;5.93;1.65;;;25.80;99.90;;;;;;5053451;28;20208;-76
2024/01/18 12:10:49;;;;;;;8.38;2.08;;;25.80;99.90;;;;;;5079242;28;20207;-75
2024/01/18 12:13:20;;;;;;;4.30;1.48;;;25.70;99.90;;;;;;5083152;28;20642;-77
2024/01/18 12:15:55;;;;;;;6.65;1.63;;;25.70;99.90;;;;;;5079156;28;20211;-77
2024/01/18 12:18:27;;;;;;;4.72;1.30;;;25.60;99.90;;;;;;5053844;28;20200;-77
2024/01/18 12:21:05;;;;;;;4.07;1.42;;;25.60;99.90;;;;;;5059102;28;20206;-77
2024/01/18 12:23:36;;;;;;;4.57;1.40;;;25.50;99.90;;;;;;5093858;28;20621;-77
2024/01/18 12:26:07;;;;;;;4.10;1.40;;;25.50;99.90;;;;;;5091323;28;20287;-77
2024/01/18 12:28:37;;;;;;;4.95;1.67;;;25.40;99.90;;;;;;5076680;28;20655;-77
2024/01/18 12:31:09;;;;;;;6.40;1.58;;;25.30;99.90;;;;;;5057886;28;20187;-76
2024/01/18 12:33:43;;;;;;;5.22;1.55;;;25.30;99.90;;;;;;5084163;28;20249;-77
2024/01/18 12:36:14;;;;;;;3.80;1.70;;;25.30;99.90;;;;;;5078892;28;20188;-76
2024/01/18 12:38:44;;;;;;;3.80;1.40;;;25.30;99.90;;;;;;5071270;28;20644;-77
2024/01/18 12:41:15;;;;;;;3.92;1.33;;;25.30;99.90;;;;;;5068371;28;20197;-77
2024/01/18 12:43:46;;;;;;;2.58;1.08;;;25.20;99.90;;;;;;5091037;28;20716;-76
2024/01/18 12:46:17;;;;;;;4.90;1.10;;;25.20;99.90;;;;;;5065139;28;20575;-77
2024/01/18 12:48:50;;;;;;;4.40;1.17;;;25.20;99.90;;;;;;5055591;28;20280;-77
2024/01/18 12:51:22;;;;;;;3.33;1.10;;;25.10;99.90;;;;;;5076072;28;20195;-77
2024/01/18 12:53:53;;;;;;;2.90;1.17;;;25.10;99.90;;;;;;5089327;28;20222;-77
2024/01/18 12:56:24;;;;;;;2.88;0.80;;;25.00;99.90;;;;;;5076088;28;20196;-76
2024/01/18 12:58:55;;;;;;;2.67;1.02;;;24.90;99.90;;;;;;5053446;28;20225;-76
2024/01/18 13:01:30;;;;;;;2.53;1.00;;;24.90;99.90;;;;;;5053007;28;20254;-76
2024/01/18 13:04:16;;;;;;;1.63;0.77;;;24.90;99.90;;;;;;5088335;28;20201;-76
2024/01/18 13:06:48;;;;;;;2.60;0.80;;;24.90;99.90;;;;;;5051867;28;20694;-76